createdAt,value
2023-01-12T00:02:06.636Z,93.30
2023-01-12T00:04:36.000Z,93.40
2023-01-12T00:07:04.239Z,93.40
2023-01-12T00:09:32.100Z,93.50
2023-01-12T00:12:00.045Z,93.50
2023-01-12T00:14:27.859Z,93.50
2023-01-12T00:16:55.724Z,93.50
2023-01-12T00:19:25.253Z,93.50
2023-01-12T00:21:59.320Z,93.50
2023-01-12T00:24:29.029Z,93.60
2023-01-12T00:26:58.626Z,93.60
2023-01-12T00:29:27.541Z,93.60
2023-01-12T00:31:56.941Z,93.60
2023-01-12T00:34:29.416Z,93.70
2023-01-12T00:36:58.200Z,93.70
2023-01-12T00:39:25.988Z,93.80
2023-01-12T00:42:26.129Z,93.80
2023-01-12T00:45:11.934Z,93.90
2023-01-12T00:47:39.721Z,94.00
2023-01-12T00:50:10.043Z,94.00
2023-01-12T00:52:37.930Z,94.20
2023-01-12T00:55:06.487Z,94.10
2023-01-12T00:57:34.317Z,94.30
2023-01-12T01:00:02.180Z,94.30
2023-01-12T01:02:30.458Z,94.40
2023-01-12T01:04:58.326Z,94.50
2023-01-12T01:07:27.553Z,94.50
2023-01-12T01:09:55.362Z,94.60
2023-01-12T01:12:23.589Z,94.50
2023-01-12T01:14:53.377Z,94.60
2023-01-12T01:17:23.570Z,95.30
2023-01-12T01:19:51.928Z,94.60
2023-01-12T01:22:19.798Z,94.60
2023-01-12T01:24:50.872Z,94.70
2023-01-12T01:27:18.773Z,94.80
2023-01-12T01:29:46.793Z,94.80
2023-01-12T01:32:14.860Z,94.80
2023-01-12T01:34:42.663Z,94.80
2023-01-12T01:37:11.653Z,94.90
2023-01-12T01:39:39.454Z,94.90
2023-01-12T01:42:27.657Z,94.90
2023-01-12T01:44:58.633Z,95.00
2023-01-12T01:47:35.868Z,95.00
2023-01-12T01:50:07.030Z,95.20
2023-01-12T01:52:37.977Z,95.20
2023-01-12T01:55:10.452Z,95.20
2023-01-12T01:57:45.591Z,95.30
2023-01-12T02:00:14.843Z,95.30
2023-01-12T02:02:44.769Z,95.30
2023-01-12T02:05:14.118Z,95.30
2023-01-12T02:07:42.371Z,95.30
2023-01-12T02:10:11.455Z,95.30
2023-01-12T02:12:58.834Z,95.30
2023-01-12T02:15:46.852Z,95.30
2023-01-12T02:18:23.090Z,95.30
2023-01-12T02:20:59.118Z,95.30
2023-01-12T02:24:14.857Z,95.30
2023-01-12T02:27:25.082Z,95.40
2023-01-12T02:30:33.976Z,95.30
2023-01-12T02:33:19.449Z,95.20
2023-01-12T02:35:58.586Z,95.10
2023-01-12T02:38:35.951Z,95.10
2023-01-12T02:41:10.737Z,95.50
2023-01-12T02:43:40.115Z,95.00
2023-01-12T02:46:15.549Z,94.90
2023-01-12T02:48:49.619Z,95.00
2023-01-12T02:51:24.397Z,95.00
2023-01-12T02:53:55.437Z,95.10
2023-01-12T02:56:28.720Z,95.00
2023-01-12T02:59:00.140Z,95.10
2023-01-12T03:01:30.004Z,95.10
2023-01-12T03:04:03.509Z,95.20
2023-01-12T03:06:41.736Z,95.20
2023-01-12T03:09:10.921Z,95.30
2023-01-12T03:11:41.519Z,95.20
2023-01-12T03:14:12.057Z,95.20
2023-01-12T03:16:41.589Z,95.30
2023-01-12T03:19:15.498Z,95.30
2023-01-12T03:21:51.195Z,95.30
2023-01-12T03:24:22.957Z,95.30
2023-01-12T03:26:53.377Z,95.30
2023-01-12T03:29:27.302Z,95.20
2023-01-12T03:31:55.509Z,95.30
2023-01-12T03:34:25.221Z,95.30
2023-01-12T03:37:00.090Z,95.30
2023-01-12T03:39:34.357Z,95.30
2023-01-12T03:42:08.427Z,95.30
2023-01-12T03:44:42.312Z,95.30
2023-01-12T03:47:16.667Z,95.40
2023-01-12T03:49:49.536Z,95.30
2023-01-12T03:52:18.950Z,95.30
2023-01-12T03:54:49.024Z,95.30
2023-01-12T03:57:17.957Z,95.30
2023-01-12T03:59:45.784Z,95.40
2023-01-12T04:02:14.340Z,95.30
2023-01-12T04:04:42.556Z,95.30
2023-01-12T04:07:11.744Z,95.40
2023-01-12T04:09:39.557Z,95.30
2023-01-12T04:12:13.920Z,95.20
2023-01-12T04:14:46.110Z,95.20
2023-01-12T04:17:15.210Z,95.20
2023-01-12T04:19:43.470Z,95.10
2023-01-12T04:22:33.869Z,95.30
2023-01-12T04:25:01.834Z,95.20
2023-01-12T04:27:29.804Z,95.20
2023-01-12T04:29:57.623Z,95.20
2023-01-12T04:32:25.533Z,95.10
2023-01-12T04:34:53.494Z,95.20
2023-01-12T04:37:24.685Z,95.20
2023-01-12T04:39:52.706Z,95.20
2023-01-12T04:42:37.490Z,95.30
2023-01-12T04:45:06.168Z,95.30
2023-01-12T04:47:34.962Z,95.40
2023-01-12T04:50:03.014Z,95.50
2023-01-12T04:52:32.302Z,95.40
2023-01-12T04:55:00.179Z,95.50
2023-01-12T04:57:27.993Z,95.90
2023-01-12T04:59:55.868Z,95.60
2023-01-12T05:02:24.203Z,95.60
2023-01-12T05:04:52.381Z,95.60
2023-01-12T05:07:20.564Z,95.70
2023-01-12T05:10:07.170Z,95.70
2023-01-12T05:12:34.976Z,95.80
2023-01-12T05:15:03.600Z,95.70
2023-01-12T05:17:32.894Z,95.80
2023-01-12T05:20:01.175Z,95.80
2023-01-12T05:22:29.141Z,95.70
2023-01-12T05:24:59.029Z,95.80
2023-01-12T05:27:26.848Z,95.80
2023-01-12T05:29:56.987Z,95.70
2023-01-12T05:32:24.826Z,95.80
2023-01-12T05:34:52.854Z,95.70
2023-01-12T05:37:20.893Z,95.80
2023-01-12T05:39:49.451Z,95.70
2023-01-12T05:42:36.048Z,95.90
2023-01-12T05:45:04.129Z,95.80
2023-01-12T05:47:31.950Z,95.80
2023-01-12T05:49:59.823Z,95.90
2023-01-12T05:52:27.656Z,95.90
2023-01-12T05:54:55.526Z,95.90
2023-01-12T05:57:24.737Z,95.90
2023-01-12T05:59:52.747Z,96.00
2023-01-12T06:02:21.819Z,96.00
2023-01-12T06:04:50.277Z,96.00
2023-01-12T06:07:18.091Z,96.00
2023-01-12T06:09:46.292Z,96.10
2023-01-12T06:12:32.098Z,96.00
2023-01-12T06:15:01.314Z,96.10
2023-01-12T06:17:29.123Z,96.10
2023-01-12T06:19:56.975Z,96.00
2023-01-12T06:22:24.866Z,96.20
2023-01-12T06:24:53.797Z,96.10
2023-01-12T06:27:22.775Z,96.10
2023-01-12T06:29:50.692Z,96.20
2023-01-12T06:32:21.327Z,96.30
2023-01-12T06:34:49.713Z,96.30
2023-01-12T06:37:17.489Z,96.30
2023-01-12T06:39:45.349Z,96.30
2023-01-12T06:42:31.638Z,96.40
2023-01-12T06:45:00.509Z,96.40
2023-01-12T06:47:31.124Z,96.50
2023-01-12T06:49:59.388Z,96.60
2023-01-12T06:52:29.832Z,96.50
2023-01-12T06:54:59.268Z,96.60
2023-01-12T06:57:27.082Z,96.60
2023-01-12T06:59:54.946Z,96.60
2023-01-12T07:02:23.529Z,96.70
2023-01-12T07:04:53.025Z,96.70
2023-01-12T07:07:21.159Z,96.90
2023-01-12T07:09:49.526Z,96.80
2023-01-12T07:12:17.353Z,96.90
2023-01-12T07:14:45.221Z,96.90
2023-01-12T07:17:13.491Z,96.90
2023-01-12T07:19:41.733Z,97.00
2023-01-12T07:22:11.090Z,96.90
2023-01-12T07:24:38.890Z,97.00
2023-01-12T07:27:07.424Z,97.00
2023-01-12T07:29:35.340Z,97.10
2023-01-12T07:32:03.254Z,97.00
2023-01-12T07:34:31.224Z,97.00
2023-01-12T07:36:59.213Z,97.00
2023-01-12T07:39:28.370Z,97.10
2023-01-12T07:42:13.850Z,97.20
2023-01-12T07:44:41.957Z,97.20
2023-01-12T07:47:09.804Z,97.20
2023-01-12T07:49:37.657Z,97.20
2023-01-12T07:52:05.817Z,97.30
2023-01-12T07:54:36.287Z,97.30
2023-01-12T07:57:04.260Z,97.30
2023-01-12T07:59:32.071Z,97.30
2023-01-12T08:01:59.924Z,97.30
2023-01-12T08:04:27.860Z,97.40
2023-01-12T08:06:55.629Z,97.50
2023-01-12T08:09:23.729Z,97.50
2023-01-12T08:11:55.897Z,97.30
2023-01-12T08:14:30.296Z,97.50
2023-01-12T08:17:01.649Z,97.60
2023-01-12T08:19:37.143Z,97.50
2023-01-12T08:22:08.651Z,97.50
2023-01-12T08:24:42.674Z,97.60
2023-01-12T08:27:12.334Z,97.60
2023-01-12T08:29:43.986Z,97.50
2023-01-12T08:32:14.008Z,97.60
2023-01-12T08:34:45.031Z,97.70
2023-01-12T08:37:16.122Z,98.00
2023-01-12T08:39:44.573Z,97.70
2023-01-12T08:42:13.742Z,97.60
2023-01-12T08:44:41.803Z,97.70
2023-01-12T08:47:18.292Z,97.60
2023-01-12T08:49:48.345Z,97.80
2023-01-12T08:52:17.108Z,97.70
2023-01-12T08:54:45.146Z,97.70
2023-01-12T08:57:16.355Z,97.70
2023-01-12T08:59:44.350Z,97.80
2023-01-12T09:02:13.048Z,97.80
2023-01-12T09:04:41.203Z,97.70
2023-01-12T09:07:11.114Z,97.70
2023-01-12T09:09:39.280Z,97.80
2023-01-12T09:12:07.183Z,97.80
2023-01-12T09:14:38.688Z,97.80
2023-01-12T09:17:06.940Z,97.80
2023-01-12T09:19:34.938Z,97.80
2023-01-12T09:22:02.723Z,97.70
2023-01-12T09:24:30.644Z,97.90
2023-01-12T09:26:58.519Z,97.80
2023-01-12T09:29:26.313Z,97.80
2023-01-12T09:31:55.645Z,97.80
2023-01-12T09:34:23.818Z,97.90
2023-01-12T09:36:56.498Z,97.90
2023-01-12T09:39:28.479Z,97.90
2023-01-12T09:42:14.552Z,97.90
2023-01-12T09:45:01.333Z,97.90
2023-01-12T09:47:36.430Z,97.90
2023-01-12T09:50:10.923Z,97.90
2023-01-12T09:52:42.568Z,98.00
2023-01-12T09:55:17.572Z,97.90
2023-01-12T09:58:04.956Z,98.00
2023-01-12T10:00:33.257Z,98.00
2023-01-12T10:03:13.043Z,97.90
2023-01-12T10:05:46.348Z,97.90
2023-01-12T10:08:19.196Z,97.90
2023-01-12T10:11:02.467Z,97.90
2023-01-12T10:13:58.671Z,98.00
2023-01-12T10:16:32.414Z,97.90
2023-01-12T10:19:09.009Z,97.90
2023-01-12T10:21:37.271Z,97.80
2023-01-12T10:24:12.454Z,97.90
2023-01-12T10:26:43.920Z,98.00
2023-01-12T10:29:12.890Z,98.00
2023-01-12T10:31:41.164Z,98.00
2023-01-12T10:34:12.124Z,98.00
2023-01-12T10:36:44.374Z,98.00
2023-01-12T10:39:29.754Z,98.00
2023-01-12T10:42:31.916Z,98.10
2023-01-12T10:45:15.347Z,98.10
2023-01-12T10:47:44.099Z,98.00
2023-01-12T10:50:25.487Z,97.90
2023-01-12T10:53:00.252Z,98.10
2023-01-12T10:55:32.917Z,98.00
2023-01-12T10:58:01.372Z,98.00
2023-01-12T11:00:30.702Z,98.00
2023-01-12T11:02:58.801Z,98.00
2023-01-12T11:05:35.428Z,98.00
2023-01-12T11:08:03.529Z,98.10
2023-01-12T11:10:35.605Z,98.00
2023-01-12T11:13:05.643Z,98.00
2023-01-12T11:15:38.952Z,98.10
2023-01-12T11:18:29.122Z,98.00
2023-01-12T11:21:02.959Z,98.10
2023-01-12T11:23:38.516Z,98.00
2023-01-12T11:26:18.250Z,98.00
2023-01-12T11:28:51.355Z,98.00
2023-01-12T11:31:25.658Z,97.90
2023-01-12T11:33:59.248Z,97.80
2023-01-12T11:36:32.416Z,97.90
2023-01-12T11:39:05.706Z,97.90
2023-01-12T11:41:40.159Z,97.80
2023-01-12T11:44:16.236Z,97.80
2023-01-12T11:46:48.029Z,98.20
2023-01-12T11:49:22.804Z,97.90
2023-01-12T11:51:56.636Z,97.90
2023-01-12T11:54:25.615Z,97.90
2023-01-12T11:57:13.577Z,97.90
2023-01-12T11:59:53.237Z,98.10
2023-01-12T12:02:34.814Z,98.00
2023-01-12T12:05:13.980Z,98.00
2023-01-12T12:07:59.816Z,98.00
2023-01-12T12:10:32.835Z,98.10
2023-01-12T12:13:19.782Z,98.20
2023-01-12T12:15:58.890Z,98.10
2023-01-12T12:18:42.561Z,98.10
2023-01-12T12:21:18.426Z,98.10
2023-01-12T12:23:55.771Z,98.10
2023-01-12T12:26:29.007Z,97.90
2023-01-12T12:29:20.849Z,98.10
2023-01-12T12:31:59.153Z,98.20
2023-01-12T12:34:43.923Z,98.10
2023-01-12T12:37:22.116Z,98.20
2023-01-12T12:39:57.353Z,98.10
2023-01-12T12:43:03.009Z,98.20
2023-01-12T12:45:39.019Z,98.20
2023-01-12T12:48:12.121Z,98.10
2023-01-12T12:50:45.115Z,98.10
2023-01-12T12:53:18.391Z,98.10
2023-01-12T12:55:49.514Z,98.10
2023-01-12T12:58:42.519Z,98.20
2023-01-12T13:01:55.375Z,98.20
2023-01-12T13:04:58.716Z,98.20
2023-01-12T13:07:27.667Z,98.10
2023-01-12T13:10:10.826Z,98.00
2023-01-12T13:12:42.305Z,98.00
2023-01-12T13:15:27.084Z,98.00
2023-01-12T13:17:55.987Z,98.20
2023-01-12T13:21:02.768Z,98.10
2023-01-12T13:24:18.474Z,98.20
2023-01-12T13:26:47.764Z,98.20
2023-01-12T13:29:52.443Z,98.00
2023-01-12T13:32:50.923Z,98.20
2023-01-12T13:35:53.197Z,98.10
2023-01-12T13:38:32.097Z,98.00
2023-01-12T13:41:04.316Z,98.10
2023-01-12T13:43:34.968Z,98.10
2023-01-12T13:46:05.289Z,98.00
2023-01-12T13:48:36.818Z,98.10
2023-01-12T13:51:08.520Z,98.10
2023-01-12T13:53:36.446Z,98.10
2023-01-12T13:56:07.387Z,98.00
2023-01-12T13:58:41.225Z,98.00
2023-01-12T14:01:18.743Z,98.10
2023-01-12T14:04:10.115Z,98.10
2023-01-12T14:06:46.795Z,98.10
2023-01-12T14:09:23.480Z,98.00
2023-01-12T14:12:24.958Z,98.00
2023-01-12T14:15:35.093Z,98.00
2023-01-12T14:18:05.161Z,98.00
2023-01-12T14:20:43.471Z,97.90
2023-01-12T14:23:21.099Z,98.00
2023-01-12T14:26:05.857Z,98.00
2023-01-12T14:28:34.487Z,98.00
2023-01-12T14:31:03.643Z,98.50
2023-01-12T14:33:34.402Z,97.80
2023-01-12T14:36:07.724Z,97.90
2023-01-12T14:38:35.954Z,97.90
2023-01-12T14:41:06.304Z,97.90
2023-01-12T14:43:53.830Z,97.90
2023-01-12T14:46:27.922Z,97.90
2023-01-12T14:49:00.778Z,97.90
2023-01-12T14:51:35.516Z,97.90
2023-01-12T14:54:17.462Z,97.90
2023-01-12T14:56:56.454Z,97.90
2023-01-12T14:59:28.718Z,98.00
2023-01-12T15:02:30.718Z,98.00
2023-01-12T15:05:01.366Z,98.00
2023-01-12T15:07:34.933Z,97.90
2023-01-12T15:10:05.224Z,97.90
2023-01-12T15:12:47.808Z,97.90
2023-01-12T15:15:23.631Z,97.90
2023-01-12T15:18:11.914Z,97.90
2023-01-12T15:21:00.947Z,97.80
2023-01-12T15:23:54.932Z,97.80
2023-01-12T15:26:24.013Z,97.80
2023-01-12T15:28:52.900Z,97.80
2023-01-12T15:31:26.301Z,97.80
2023-01-12T15:33:54.497Z,97.90
2023-01-12T15:36:23.305Z,97.80
2023-01-12T15:38:53.472Z,98.50
2023-01-12T15:41:44.795Z,97.90
2023-01-12T15:44:13.895Z,97.80
2023-01-12T15:46:42.457Z,97.90
2023-01-12T15:49:10.725Z,97.90
2023-01-12T15:51:38.890Z,97.90
2023-01-12T15:54:08.964Z,97.80
2023-01-12T15:56:36.814Z,97.90
2023-01-12T15:59:04.872Z,97.90
2023-01-12T16:01:38.359Z,97.90
2023-01-12T16:04:40.316Z,97.90
2023-01-12T16:06:55.503Z,97.80
2023-01-12T16:09:26.132Z,97.90
2023-01-12T16:11:53.975Z,97.90
2023-01-12T16:14:22.120Z,97.80
2023-01-12T16:16:50.682Z,97.80
2023-01-12T16:19:23.757Z,97.80
2023-01-12T16:21:55.731Z,97.90
2023-01-12T16:24:26.626Z,97.80
2023-01-12T16:26:54.840Z,97.90
2023-01-12T16:29:25.691Z,97.80
2023-01-12T16:31:53.517Z,97.80
2023-01-12T16:34:23.454Z,97.80
2023-01-12T16:36:51.785Z,97.80
2023-01-12T16:39:19.818Z,97.70
2023-01-12T16:41:53.191Z,97.80
2023-01-12T16:44:23.885Z,97.80
2023-01-12T16:46:54.897Z,97.80
2023-01-12T16:49:24.596Z,97.80
2023-01-12T16:51:52.530Z,97.80
2023-01-12T16:54:20.895Z,97.80
2023-01-12T16:56:53.833Z,97.80
2023-01-12T16:59:22.817Z,97.80
2023-01-12T17:01:51.904Z,97.80
2023-01-12T17:04:20.928Z,97.80
2023-01-12T17:06:51.789Z,97.90
2023-01-12T17:09:20.775Z,97.90
2023-01-12T17:11:52.162Z,97.90
2023-01-12T17:14:27.494Z,98.00
2023-01-12T17:16:57.596Z,97.90
2023-01-12T17:19:27.401Z,98.00
2023-01-12T17:21:58.040Z,97.90
2023-01-12T17:24:26.252Z,98.00
2023-01-12T17:26:56.417Z,97.90
2023-01-12T17:29:26.790Z,98.00
2023-01-12T17:31:56.560Z,98.00
2023-01-12T17:34:27.369Z,98.00
2023-01-12T17:36:55.320Z,97.90
2023-01-12T17:39:23.208Z,97.90
2023-01-12T17:42:08.591Z,97.80
2023-01-12T17:44:37.747Z,97.70
2023-01-12T17:47:05.662Z,97.90
2023-01-12T17:49:33.600Z,98.00
2023-01-12T17:52:01.532Z,97.90
2023-01-12T17:54:29.464Z,97.90
2023-01-12T17:56:57.357Z,97.90
2023-01-12T17:59:25.612Z,97.90
2023-01-12T18:01:55.485Z,97.90
2023-01-12T18:04:23.665Z,97.90
2023-01-12T18:06:52.086Z,97.80
2023-01-12T18:09:20.088Z,98.30
2023-01-12T18:11:48.024Z,97.90
2023-01-12T18:14:15.959Z,98.00
2023-01-12T18:16:43.776Z,97.90
2023-01-12T18:19:14.907Z,98.00
2023-01-12T18:21:42.790Z,98.00
2023-01-12T18:24:10.648Z,98.00
2023-01-12T18:26:39.116Z,98.00
2023-01-12T18:29:07.802Z,97.90
2023-01-12T18:31:42.185Z,98.00
2023-01-12T18:34:12.151Z,98.00
2023-01-12T18:36:41.890Z,97.90
2023-01-12T18:39:15.983Z,97.90
2023-01-12T18:42:01.180Z,97.90
2023-01-12T18:44:30.913Z,97.80
2023-01-12T18:47:16.957Z,97.80
2023-01-12T18:49:46.953Z,97.80
2023-01-12T18:52:33.073Z,97.80
2023-01-12T18:55:00.957Z,97.80
2023-01-12T18:57:30.657Z,97.70
2023-01-12T19:00:07.985Z,97.80
2023-01-12T19:02:35.921Z,97.80
2023-01-12T19:05:18.996Z,97.80
2023-01-12T19:08:26.088Z,97.70
2023-01-12T19:10:53.966Z,97.80
2023-01-12T19:13:43.353Z,97.60
2023-01-12T19:16:32.521Z,97.60
2023-01-12T19:19:00.483Z,97.70
2023-01-12T19:21:47.658Z,97.60
2023-01-12T19:24:32.585Z,97.70
2023-01-12T19:27:18.147Z,97.70
2023-01-12T19:29:46.744Z,97.70
2023-01-12T19:32:14.709Z,97.70
2023-01-12T19:34:42.640Z,97.70
2023-01-12T19:37:13.124Z,97.70
2023-01-12T19:40:00.660Z,97.70
2023-01-12T19:42:46.737Z,97.70
2023-01-12T19:45:14.581Z,97.60
2023-01-12T19:47:42.456Z,97.60
2023-01-12T19:50:12.474Z,97.60
2023-01-12T19:52:43.659Z,97.70
2023-01-12T19:55:14.689Z,97.50
2023-01-12T19:57:43.940Z,97.50
2023-01-12T20:00:14.951Z,97.60
2023-01-12T20:02:43.557Z,97.60
2023-01-12T20:05:13.581Z,97.50
2023-01-12T20:07:42.963Z,97.50
2023-01-12T20:10:11.478Z,97.50
2023-01-12T20:12:39.268Z,97.50
2023-01-12T20:15:08.081Z,97.50
2023-01-12T20:17:36.157Z,97.50
2023-01-12T20:20:04.267Z,97.60
2023-01-12T20:22:32.087Z,97.60
2023-01-12T20:25:02.701Z,97.50
2023-01-12T20:27:32.658Z,97.50
2023-01-12T20:30:00.833Z,97.50
2023-01-12T20:32:31.498Z,97.60
2023-01-12T20:34:59.975Z,97.60
2023-01-12T20:37:28.188Z,97.50
2023-01-12T20:39:57.523Z,97.70
2023-01-12T20:42:27.283Z,97.70
2023-01-12T20:44:55.131Z,97.70
2023-01-12T20:47:23.494Z,97.60
2023-01-12T20:49:52.013Z,97.70
2023-01-12T20:52:20.009Z,97.60
2023-01-12T20:54:48.150Z,98.00
2023-01-12T20:57:16.033Z,97.60
2023-01-12T20:59:45.724Z,97.70
2023-01-12T21:02:18.871Z,97.70
2023-01-12T21:04:46.834Z,97.70
2023-01-12T21:07:14.792Z,97.60
2023-01-12T21:09:42.689Z,97.70
2023-01-12T21:12:10.986Z,97.60
2023-01-12T21:14:39.126Z,97.40
2023-01-12T21:17:08.412Z,97.30
2023-01-12T21:19:36.333Z,97.10
2023-01-12T21:22:04.302Z,96.90
2023-01-12T21:24:32.199Z,96.90
2023-01-12T21:27:00.123Z,96.80
2023-01-12T21:29:28.039Z,96.70
2023-01-12T21:31:56.002Z,96.60
2023-01-12T21:34:25.182Z,96.60
2023-01-12T21:36:53.584Z,96.70
2023-01-12T21:39:24.170Z,96.70
2023-01-12T21:42:12.549Z,96.80
2023-01-12T21:44:40.350Z,97.10
2023-01-12T21:47:08.187Z,97.10
2023-01-12T21:49:37.383Z,97.20
2023-01-12T21:52:05.616Z,97.30
2023-01-12T21:54:33.496Z,97.30
2023-01-12T21:57:01.416Z,97.40
2023-01-12T21:59:29.429Z,97.30
2023-01-12T22:01:57.406Z,97.20
2023-01-12T22:04:25.398Z,97.20
2023-01-12T22:06:54.581Z,97.10
2023-01-12T22:09:25.801Z,96.90
2023-01-12T22:11:53.683Z,96.80
2023-01-12T22:14:21.677Z,96.80
2023-01-12T22:16:49.814Z,96.70
2023-01-12T22:19:17.823Z,96.70
2023-01-12T22:21:45.733Z,96.60
2023-01-12T22:24:14.978Z,96.60
2023-01-12T22:26:42.855Z,96.60
2023-01-12T22:29:10.746Z,96.60
2023-01-12T22:31:38.601Z,96.70
2023-01-12T22:34:06.996Z,96.60
2023-01-12T22:36:42.555Z,96.90
2023-01-12T22:39:10.570Z,96.60
2023-01-12T22:41:40.281Z,96.60
2023-01-12T22:44:08.182Z,96.50
2023-01-12T22:46:36.841Z,96.40
2023-01-12T22:49:04.729Z,96.30
2023-01-12T22:51:32.569Z,96.20
2023-01-12T22:54:01.130Z,96.10
2023-01-12T22:56:29.056Z,96.00
2023-01-12T22:58:58.343Z,96.00
2023-01-12T23:01:27.577Z,96.00
2023-01-12T23:03:56.471Z,96.00
2023-01-12T23:06:25.440Z,96.00
2023-01-12T23:08:53.417Z,96.10
2023-01-12T23:11:23.397Z,96.00
2023-01-12T23:13:52.613Z,96.00
2023-01-12T23:16:22.583Z,96.00
2023-01-12T23:18:51.337Z,95.90
2023-01-12T23:21:21.809Z,95.90
2023-01-12T23:23:51.654Z,96.00
2023-01-12T23:26:22.496Z,96.00
2023-01-12T23:28:53.351Z,95.80
2023-01-12T23:31:24.749Z,95.70
2023-01-12T23:33:53.110Z,95.50
2023-01-12T23:36:23.172Z,95.30
2023-01-12T23:38:53.696Z,95.00
2023-01-12T23:41:24.497Z,94.90
2023-01-12T23:43:56.002Z,94.80
2023-01-12T23:46:26.148Z,94.70
2023-01-12T23:48:55.631Z,94.50
2023-01-12T23:51:25.138Z,94.50
2023-01-12T23:53:53.242Z,94.40
2023-01-12T23:56:22.116Z,94.40
2023-01-12T23:58:52.511Z,94.20
